sensor_id;sensor_type;location;lat;lon;timestamp;pressure;altitude;pressure_sealevel;temperature
74915;BMP280;63475;45.140;-75.616;2023-02-24T00:00:13;100421.50;;;-8.44
74915;BMP280;63475;45.140;-75.616;2023-02-24T00:01:35;100428.44;;;-8.44
74915;BMP280;63475;45.140;-75.616;2023-02-24T00:02:39;100419.97;;;-8.50
74915;BMP280;63475;45.140;-75.616;2023-02-24T00:03:39;100418.44;;;-8.51
74915;BMP280;63475;45.140;-75.616;2023-02-24T00:04:44;100432.03;;;-8.45
74915;BMP280;63475;45.140;-75.616;2023-02-24T00:05:45;100430.72;;;-8.48
74915;BMP280;63475;45.140;-75.616;2023-02-24T00:06:49;100408.78;;;-8.64
74915;BMP280;63475;45.140;-75.616;2023-02-24T00:07:50;100424.13;;;-8.54
74915;BMP280;63475;45.140;-75.616;2023-02-24T00:08:51;100421.31;;;-8.57
74915;BMP280;63475;45.140;-75.616;2023-02-24T00:09:53;100436.91;;;-8.49
74915;BMP280;63475;45.140;-75.616;2023-02-24T00:10:54;100428.22;;;-8.53
74915;BMP280;63475;45.140;-75.616;2023-02-24T00:11:56;100435.91;;;-8.53
74915;BMP280;63475;45.140;-75.616;2023-02-24T00:12:57;100410.34;;;-8.68
74915;BMP280;63475;45.140;-75.616;2023-02-24T00:13:58;100426.13;;;-8.51
74915;BMP280;63475;45.140;-75.616;2023-02-24T00:14:59;100435.34;;;-8.45
74915;BMP280;63475;45.140;-75.616;2023-02-24T00:16:01;100428.16;;;-8.48
74915;BMP280;63475;45.140;-75.616;2023-02-24T00:17:02;100403.69;;;-8.69
74915;BMP280;63475;45.140;-75.616;2023-02-24T00:18:04;100412.34;;;-8.60
74915;BMP280;63475;45.140;-75.616;2023-02-24T00:19:06;100407.22;;;-8.60
74915;BMP280;63475;45.140;-75.616;2023-02-24T00:20:08;100406.69;;;-8.57
74915;BMP280;63475;45.140;-75.616;2023-02-24T00:21:14;100417.22;;;-8.58
74915;BMP280;63475;45.140;-75.616;2023-02-24T00:22:15;100410.81;;;-8.61
74915;BMP280;63475;45.140;-75.616;2023-02-24T00:23:16;100411.81;;;-8.57
74915;BMP280;63475;45.140;-75.616;2023-02-24T00:24:17;100384.69;;;-8.73
74915;BMP280;63475;45.140;-75.616;2023-02-24T00:25:18;100404.41;;;-8.63
74915;BMP280;63475;45.140;-75.616;2023-02-24T00:26:20;100391.63;;;-8.74
74915;BMP280;63475;45.140;-75.616;2023-02-24T00:27:21;100382.69;;;-8.86
74915;BMP280;63475;45.140;-75.616;2023-02-24T00:28:24;100404.19;;;-8.72
74915;BMP280;63475;45.140;-75.616;2023-02-24T00:29:27;100384.00;;;-8.89
74915;BMP280;63475;45.140;-75.616;2023-02-24T00:30:28;100413.47;;;-8.71
74915;BMP280;63475;45.140;-75.616;2023-02-24T00:31:32;100419.56;;;-8.67
74915;BMP280;63475;45.140;-75.616;2023-02-24T00:32:33;100415.47;;;-8.68
74915;BMP280;63475;45.140;-75.616;2023-02-24T00:33:36;100434.22;;;-8.68
74915;BMP280;63475;45.140;-75.616;2023-02-24T00:34:38;100428.84;;;-8.71
74915;BMP280;63475;45.140;-75.616;2023-02-24T00:35:39;100424.72;;;-8.67
74915;BMP280;63475;45.140;-75.616;2023-02-24T00:36:40;100428.59;;;-8.70
74915;BMP280;63475;45.140;-75.616;2023-02-24T00:37:41;100393.28;;;-8.93
74915;BMP280;63475;45.140;-75.616;2023-02-24T00:38:42;100432.94;;;-8.70
74915;BMP280;63475;45.140;-75.616;2023-02-24T00:39:46;100419.88;;;-8.74
74915;BMP280;63475;45.140;-75.616;2023-02-24T00:40:47;100396.09;;;-8.94
74915;BMP280;63475;45.140;-75.616;2023-02-24T00:41:48;100417.09;;;-8.82
74915;BMP280;63475;45.140;-75.616;2023-02-24T00:42:49;100418.09;;;-8.78
74915;BMP280;63475;45.140;-75.616;2023-02-24T00:43:50;100413.75;;;-8.78
74915;BMP280;63475;45.140;-75.616;2023-02-24T00:44:51;100400.47;;;-9.00
74915;BMP280;63475;45.140;-75.616;2023-02-24T00:45:53;100400.22;;;-8.99
74915;BMP280;63475;45.140;-75.616;2023-02-24T00:46:54;100394.59;;;-9.01
74915;BMP280;63475;45.140;-75.616;2023-02-24T00:47:55;100432.97;;;-8.80
74915;BMP280;63475;45.140;-75.616;2023-02-24T00:48:57;100395.13;;;-9.04
74915;BMP280;63475;45.140;-75.616;2023-02-24T00:49:57;100385.91;;;-9.10
74915;BMP280;63475;45.140;-75.616;2023-02-24T00:51:00;100406.59;;;-8.96
74915;BMP280;63475;45.140;-75.616;2023-02-24T00:52:00;100427.84;;;-8.85
74915;BMP280;63475;45.140;-75.616;2023-02-24T00:53:06;100434.03;;;-8.86
74915;BMP280;63475;45.140;-75.616;2023-02-24T00:54:08;100432.03;;;-9.00
74915;BMP280;63475;45.140;-75.616;2023-02-24T00:55:10;100411.31;;;-9.13
74915;BMP280;63475;45.140;-75.616;2023-02-24T00:56:14;100442.53;;;-8.91
74915;BMP280;63475;45.140;-75.616;2023-02-24T00:57:16;100447.38;;;-8.89
74915;BMP280;63475;45.140;-75.616;2023-02-24T00:58:19;100440.72;;;-8.90
74915;BMP280;63475;45.140;-75.616;2023-02-24T00:59:21;100448.94;;;-8.93
74915;BMP280;63475;45.140;-75.616;2023-02-24T01:00:26;100429.72;;;-9.01
74915;BMP280;63475;45.140;-75.616;2023-02-24T01:01:30;100444.84;;;-8.94
74915;BMP280;63475;45.140;-75.616;2023-02-24T01:02:32;100445.63;;;-8.94
74915;BMP280;63475;45.140;-75.616;2023-02-24T01:03:33;100444.84;;;-8.94
74915;BMP280;63475;45.140;-75.616;2023-02-24T01:04:34;100407.19;;;-9.19
74915;BMP280;63475;45.140;-75.616;2023-02-24T01:05:37;100441.53;;;-9.00
74915;BMP280;63475;45.140;-75.616;2023-02-24T01:06:40;100442.28;;;-9.00
74915;BMP280;63475;45.140;-75.616;2023-02-24T01:07:42;100414.63;;;-9.03
74915;BMP280;63475;45.140;-75.616;2023-02-24T01:08:43;100416.63;;;-9.00
74915;BMP280;63475;45.140;-75.616;2023-02-24T01:09:49;100415.09;;;-9.01
74915;BMP280;63475;45.140;-75.616;2023-02-24T01:10:57;100414.63;;;-9.08
74915;BMP280;63475;45.140;-75.616;2023-02-24T01:12:17;100413.56;;;-9.02
74915;BMP280;63475;45.140;-75.616;2023-02-24T01:13:37;100387.22;;;-9.12
74915;BMP280;63475;45.140;-75.616;2023-02-24T01:14:38;100406.38;;;-9.00
74915;BMP280;63475;45.140;-75.616;2023-02-24T01:15:39;100390.78;;;-9.08
74915;BMP280;63475;45.140;-75.616;2023-02-24T01:16:42;100408.19;;;-9.00
74915;BMP280;63475;45.140;-75.616;2023-02-24T01:17:49;100404.34;;;-9.03
74915;BMP280;63475;45.140;-75.616;2023-02-24T01:18:50;100419.47;;;-9.01
74915;BMP280;63475;45.140;-75.616;2023-02-24T01:19:51;100420.75;;;-8.99
74915;BMP280;63475;45.140;-75.616;2023-02-24T01:20:54;100384.16;;;-9.25
74915;BMP280;63475;45.140;-75.616;2023-02-24T01:21:59;100420.78;;;-9.04
74915;BMP280;63475;45.140;-75.616;2023-02-24T01:23:00;100416.91;;;-9.01
74915;BMP280;63475;45.140;-75.616;2023-02-24T01:24:02;100416.16;;;-9.02
74915;BMP280;63475;45.140;-75.616;2023-02-24T01:25:04;100394.13;;;-9.18
74915;BMP280;63475;45.140;-75.616;2023-02-24T01:26:08;100417.69;;;-9.01
74915;BMP280;63475;45.140;-75.616;2023-02-24T01:27:13;100414.66;;;-9.13
74915;BMP280;63475;45.140;-75.616;2023-02-24T01:28:16;100430.00;;;-9.03
74915;BMP280;63475;45.140;-75.616;2023-02-24T01:29:18;100421.31;;;-9.07
74915;BMP280;63475;45.140;-75.616;2023-02-24T01:30:19;100414.38;;;-9.11
74915;BMP280;63475;45.140;-75.616;2023-02-24T01:31:20;100410.28;;;-9.12
74915;BMP280;63475;45.140;-75.616;2023-02-24T01:32:22;100402.59;;;-9.17
74915;BMP280;63475;45.140;-75.616;2023-02-24T01:33:24;100416.19;;;-9.12
74915;BMP280;63475;45.140;-75.616;2023-02-24T01:34:26;100409.25;;;-9.16
74915;BMP280;63475;45.140;-75.616;2023-02-24T01:35:27;100374.94;;;-9.31
74915;BMP280;63475;45.140;-75.616;2023-02-24T01:36:28;100406.19;;;-9.13
74915;BMP280;63475;45.140;-75.616;2023-02-24T01:37:30;100397.22;;;-9.16
74915;BMP280;63475;45.140;-75.616;2023-02-24T01:38:31;100373.41;;;-9.32
74915;BMP280;63475;45.140;-75.616;2023-02-24T01:39:32;100410.03;;;-9.11
74915;BMP280;63475;45.140;-75.616;2023-02-24T01:40:33;100414.13;;;-9.10
74915;BMP280;63475;45.140;-75.616;2023-02-24T01:41:34;100413.63;;;-9.12
74915;BMP280;63475;45.140;-75.616;2023-02-24T01:42:35;100400.81;;;-9.22
74915;BMP280;63475;45.140;-75.616;2023-02-24T01:45:13;100410.53;;;-9.14
74915;BMP280;63475;45.140;-75.616;2023-02-24T01:46:14;100413.34;;;-9.15
74915;BMP280;63475;45.140;-75.616;2023-02-24T01:47:18;100411.06;;;-9.17
74915;BMP280;63475;45.140;-75.616;2023-02-24T01:48:23;100290.56;;;-9.92
74915;BMP280;63475;45.140;-75.616;2023-02-24T01:49:36;100402.34;;;-9.16
74915;BMP280;63475;45.140;-75.616;2023-02-24T01:50:39;100397.22;;;-9.16
74915;BMP280;63475;45.140;-75.616;2023-02-24T01:51:52;100394.91;;;-9.17
74915;BMP280;63475;45.140;-75.616;2023-02-24T01:52:57;100346.53;;;-9.44
74915;BMP280;63475;45.140;-75.616;2023-02-24T01:54:00;100387.97;;;-9.17
74915;BMP280;63475;45.140;-75.616;2023-02-24T01:55:12;100379.25;;;-9.16
74915;BMP280;63475;45.140;-75.616;2023-02-24T01:56:15;100388.47;;;-9.15
74915;BMP280;63475;45.140;-75.616;2023-02-24T01:57:18;100394.13;;;-9.13
74915;BMP280;63475;45.140;-75.616;2023-02-24T01:58:25;100386.94;;;-9.16
74915;BMP280;63475;45.140;-75.616;2023-02-24T01:59:29;100393.88;;;-9.16
74915;BMP280;63475;45.140;-75.616;2023-02-24T02:00:30;100388.47;;;-9.15
74915;BMP280;63475;45.140;-75.616;2023-02-24T02:01:37;100390.00;;;-9.14
74915;BMP280;63475;45.140;-75.616;2023-02-24T02:02:44;100371.09;;;-9.28
74915;BMP280;63475;45.140;-75.616;2023-02-24T02:03:46;100387.44;;;-9.19
74915;BMP280;63475;45.140;-75.616;2023-02-24T02:04:55;100389.25;;;-9.14
74915;BMP280;63475;45.140;-75.616;2023-02-24T02:06:07;100401.81;;;-9.13
74915;BMP280;63475;45.140;-75.616;2023-02-24T02:07:11;100375.19;;;-9.27
74915;BMP280;63475;45.140;-75.616;2023-02-24T02:08:15;100382.59;;;-9.20
74915;BMP280;63475;45.140;-75.616;2023-02-24T02:09:17;100382.31;;;-9.19
74915;BMP280;63475;45.140;-75.616;2023-02-24T02:10:18;100364.19;;;-9.28
74915;BMP280;63475;45.140;-75.616;2023-02-24T02:11:19;100388.47;;;-9.10
74915;BMP280;63475;45.140;-75.616;2023-02-24T02:12:22;100388.19;;;-9.08
74915;BMP280;63475;45.140;-75.616;2023-02-24T02:13:25;100391.81;;;-9.09
74915;BMP280;63475;45.140;-75.616;2023-02-24T02:14:28;100392.56;;;-9.09
74915;BMP280;63475;45.140;-75.616;2023-02-24T02:15:38;100366.47;;;-9.26
74915;BMP280;63475;45.140;-75.616;2023-02-24T02:17:03;100383.59;;;-9.11
74915;BMP280;63475;45.140;-75.616;2023-02-24T02:18:17;100386.44;;;-9.13
74915;BMP280;63475;45.140;-75.616;2023-02-24T02:21:41;100393.88;;;-9.11
74915;BMP280;63475;45.140;-75.616;2023-02-24T02:25:54;100387.44;;;-9.19
74915;BMP280;63475;45.140;-75.616;2023-02-24T02:27:27;100386.44;;;-9.13
74915;BMP280;63475;45.140;-75.616;2023-02-24T02:36:19;100390.53;;;-9.12
74915;BMP280;63475;45.140;-75.616;2023-02-24T02:37:37;100365.22;;;-9.29
74915;BMP280;63475;45.140;-75.616;2023-02-24T02:38:54;100392.06;;;-9.06
74915;BMP280;63475;45.140;-75.616;2023-02-24T02:40:06;100392.06;;;-9.06
74915;BMP280;63475;45.140;-75.616;2023-02-24T02:41:41;100388.47;;;-9.10
74915;BMP280;63475;45.140;-75.616;2023-02-24T02:47:16;100389.22;;;-9.09
74915;BMP280;63475;45.140;-75.616;2023-02-24T02:48:06;100390.28;;;-9.10
74915;BMP280;63475;45.140;-75.616;2023-02-24T02:49:18;100393.88;;;-9.11
74915;BMP280;63475;45.140;-75.616;2023-02-24T02:50:25;100401.06;;;-9.13
74915;BMP280;63475;45.140;-75.616;2023-02-24T02:51:32;100400.78;;;-9.12
74915;BMP280;63475;45.140;-75.616;2023-02-24T02:52:51;100404.13;;;-9.11
74915;BMP280;63475;45.140;-75.616;2023-02-24T02:55:41;100398.22;;;-9.12
74915;BMP280;63475;45.140;-75.616;2023-02-24T02:56:52;100398.50;;;-9.13
74915;BMP280;63475;45.140;-75.616;2023-02-24T02:57:55;100382.34;;;-9.24
74915;BMP280;63475;45.140;-75.616;2023-02-24T02:58:58;100401.81;;;-9.13
74915;BMP280;63475;45.140;-75.616;2023-02-24T03:00:15;100402.59;;;-9.12
74915;BMP280;63475;45.140;-75.616;2023-02-24T03:01:24;100398.50;;;-9.13
74915;BMP280;63475;45.140;-75.616;2023-02-24T03:02:29;100392.84;;;-9.10
74915;BMP280;63475;45.140;-75.616;2023-02-24T03:03:33;100349.09;;;-9.44
74915;BMP280;63475;45.140;-75.616;2023-02-24T03:04:40;100395.41;;;-9.15
74915;BMP280;63475;45.140;-75.616;2023-02-24T03:05:51;100398.50;;;-9.13
74915;BMP280;63475;45.140;-75.616;2023-02-24T03:06:59;100387.44;;;-9.14
74915;BMP280;63475;45.140;-75.616;2023-02-24T03:08:01;100388.75;;;-9.11
74915;BMP280;63475;45.140;-75.616;2023-02-24T03:09:08;100393.34;;;-9.08
74915;BMP280;63475;45.140;-75.616;2023-02-24T03:10:16;100399.50;;;-9.09
74915;BMP280;63475;45.140;-75.616;2023-02-24T03:11:22;100332.97;;;-9.45
74915;BMP280;63475;45.140;-75.616;2023-02-24T03:12:25;100395.91;;;-9.08
74915;BMP280;63475;45.140;-75.616;2023-02-24T03:13:30;100390.53;;;-9.07
74915;BMP280;63475;45.140;-75.616;2023-02-24T03:14:34;100397.41;;;-9.02
74915;BMP280;63475;45.140;-75.616;2023-02-24T03:15:37;100394.59;;;-9.01
74915;BMP280;63475;45.140;-75.616;2023-02-24T03:16:44;100404.84;;;-9.01
74915;BMP280;63475;45.140;-75.616;2023-02-24T03:17:53;100401.78;;;-9.03
74915;BMP280;63475;45.140;-75.616;2023-02-24T03:19:02;100409.47;;;-9.03
74915;BMP280;63475;45.140;-75.616;2023-02-24T03:21:25;100410.00;;;-9.06
74915;BMP280;63475;45.140;-75.616;2023-02-24T03:22:57;100406.91;;;-9.03
74915;BMP280;63475;45.140;-75.616;2023-02-24T03:24:00;100413.56;;;-9.02
74915;BMP280;63475;45.140;-75.616;2023-02-24T03:25:02;100405.41;;;-9.09
74915;BMP280;63475;45.140;-75.616;2023-02-24T03:27:32;100433.59;;;-9.04
74915;BMP280;63475;45.140;-75.616;2023-02-24T03:28:37;100432.06;;;-9.10
74915;BMP280;63475;45.140;-75.616;2023-02-24T03:29:51;100417.22;;;-9.13
74915;BMP280;63475;45.140;-75.616;2023-02-24T03:31:00;100434.13;;;-9.07
74915;BMP280;63475;45.140;-75.616;2023-02-24T03:32:12;100439.47;;;-8.98
74915;BMP280;63475;45.140;-75.616;2023-02-24T03:35:46;100444.09;;;-8.95
74915;BMP280;63475;45.140;-75.616;2023-02-24T03:36:50;100439.47;;;-8.98
74915;BMP280;63475;45.140;-75.616;2023-02-24T03:37:55;100412.09;;;-9.13
74915;BMP280;63475;45.140;-75.616;2023-02-24T03:38:58;100446.63;;;-8.90
74915;BMP280;63475;45.140;-75.616;2023-02-24T03:40:05;100442.53;;;-8.91
74915;BMP280;63475;45.140;-75.616;2023-02-24T03:41:14;100439.69;;;-8.89
74915;BMP280;63475;45.140;-75.616;2023-02-24T03:42:18;100435.31;;;-8.89
74915;BMP280;63475;45.140;-75.616;2023-02-24T03:43:31;100432.00;;;-8.89
74915;BMP280;63475;45.140;-75.616;2023-02-24T03:44:34;100403.59;;;-9.08
74915;BMP280;63475;45.140;-75.616;2023-02-24T03:45:37;100434.50;;;-8.84
74915;BMP280;63475;45.140;-75.616;2023-02-24T03:46:38;100433.75;;;-8.85
74915;BMP280;63475;45.140;-75.616;2023-02-24T03:47:41;100439.66;;;-8.84
74915;BMP280;63475;45.140;-75.616;2023-02-24T03:48:46;100442.22;;;-8.84
74915;BMP280;63475;45.140;-75.616;2023-02-24T03:49:48;100442.22;;;-8.84
74915;BMP280;63475;45.140;-75.616;2023-02-24T03:50:49;100449.91;;;-8.84
74915;BMP280;63475;45.140;-75.616;2023-02-24T03:54:11;100458.63;;;-8.80
74915;BMP280;63475;45.140;-75.616;2023-02-24T03:58:25;100448.13;;;-8.84
74915;BMP280;63475;45.140;-75.616;2023-02-24T04:01:00;100444.78;;;-8.84
74915;BMP280;63475;45.140;-75.616;2023-02-24T04:02:25;100450.44;;;-8.82
74915;BMP280;63475;45.140;-75.616;2023-02-24T04:03:46;100451.97;;;-8.86
74915;BMP280;63475;45.140;-75.616;2023-02-24T04:04:56;100446.13;;;-8.92
74915;BMP280;63475;45.140;-75.616;2023-02-24T04:08:12;100365.72;;;-9.27
74915;BMP280;63475;45.140;-75.616;2023-02-24T04:09:38;100442.22;;;-8.79
74915;BMP280;63475;45.140;-75.616;2023-02-24T04:11:53;100452.22;;;-8.78
74915;BMP280;63475;45.140;-75.616;2023-02-24T04:14:07;100450.44;;;-8.87
74915;BMP280;63475;45.140;-75.616;2023-02-24T04:15:18;100448.13;;;-8.84
74915;BMP280;63475;45.140;-75.616;2023-02-24T04:16:25;100445.56;;;-8.84
74915;BMP280;63475;45.140;-75.616;2023-02-24T04:17:48;100454.78;;;-8.78
74915;BMP280;63475;45.140;-75.616;2023-02-24T04:18:50;100426.34;;;-8.91
74915;BMP280;63475;45.140;-75.616;2023-02-24T04:19:56;100467.84;;;-8.69
74915;BMP280;63475;45.140;-75.616;2023-02-24T04:21:00;100472.72;;;-8.73
74915;BMP280;63475;45.140;-75.616;2023-02-24T04:22:03;100480.94;;;-8.71
74915;BMP280;63475;45.140;-75.616;2023-02-24T04:23:12;100454.53;;;-8.86
74915;BMP280;63475;45.140;-75.616;2023-02-24T04:24:17;100489.44;;;-8.75
74915;BMP280;63475;45.140;-75.616;2023-02-24T04:25:23;100489.16;;;-8.74
74915;BMP280;63475;45.140;-75.616;2023-02-24T04:26:25;100487.34;;;-8.68
74915;BMP280;63475;45.140;-75.616;2023-02-24T04:27:28;100490.63;;;-8.57
74915;BMP280;63475;45.140;-75.616;2023-02-24T04:28:30;100493.94;;;-8.52
74915;BMP280;63475;45.140;-75.616;2023-02-24T04:29:35;100494.72;;;-8.56
74915;BMP280;63475;45.140;-75.616;2023-02-24T04:30:42;100503.94;;;-8.50
74915;BMP280;63475;45.140;-75.616;2023-02-24T04:31:51;100504.97;;;-8.51
74915;BMP280;63475;45.140;-75.616;2023-02-24T04:32:52;100504.50;;;-8.58
74915;BMP280;63475;45.140;-75.616;2023-02-24T04:33:55;100526.56;;;-8.57
74915;BMP280;63475;45.140;-75.616;2023-02-24T04:35:05;100514.00;;;-8.59
74915;BMP280;63475;45.140;-75.616;2023-02-24T04:36:08;100510.47;;;-8.73
74915;BMP280;63475;45.140;-75.616;2023-02-24T04:37:12;100519.16;;;-8.64
74915;BMP280;63475;45.140;-75.616;2023-02-24T04:38:16;100527.38;;;-8.67
74915;BMP280;63475;45.140;-75.616;2023-02-24T04:39:19;100527.38;;;-8.67
74915;BMP280;63475;45.140;-75.616;2023-02-24T04:40:21;100525.63;;;-8.72
74915;BMP280;63475;45.140;-75.616;2023-02-24T04:41:22;100530.00;;;-8.77
74915;BMP280;63475;45.140;-75.616;2023-02-24T04:42:24;100502.84;;;-8.99
74915;BMP280;63475;45.140;-75.616;2023-02-24T04:43:25;100529.47;;;-8.79
74915;BMP280;63475;45.140;-75.616;2023-02-24T04:44:26;100533.59;;;-8.83
74915;BMP280;63475;45.140;-75.616;2023-02-24T04:45:29;100528.72;;;-8.90
74915;BMP280;63475;45.140;-75.616;2023-02-24T04:46:30;100525.44;;;-9.06
74915;BMP280;63475;45.140;-75.616;2023-02-24T04:47:31;100519.56;;;-9.06
74915;BMP280;63475;45.140;-75.616;2023-02-24T04:48:35;100537.47;;;-8.91
74915;BMP280;63475;45.140;-75.616;2023-02-24T04:49:36;100513.13;;;-9.14
74915;BMP280;63475;45.140;-75.616;2023-02-24T04:50:41;100528.25;;;-9.02
74915;BMP280;63475;45.140;-75.616;2023-02-24T04:51:43;100523.91;;;-9.07
74915;BMP280;63475;45.140;-75.616;2023-02-24T04:52:46;100525.94;;;-9.09
74915;BMP280;63475;45.140;-75.616;2023-02-24T04:53:49;100517.50;;;-9.25
74915;BMP280;63475;45.140;-75.616;2023-02-24T04:54:54;100521.34;;;-9.22
74915;BMP280;63475;45.140;-75.616;2023-02-24T04:55:55;100527.75;;;-9.25
74915;BMP280;63475;45.140;-75.616;2023-02-24T04:56:56;100520.88;;;-9.44
74915;BMP280;63475;45.140;-75.616;2023-02-24T04:58:00;100514.19;;;-9.61
74915;BMP280;63475;45.140;-75.616;2023-02-24T04:59:02;100528.53;;;-9.65
74915;BMP280;63475;45.140;-75.616;2023-02-24T05:00:04;100521.38;;;-9.78
74915;BMP280;63475;45.140;-75.616;2023-02-24T05:01:20;100489.84;;;-9.78
74915;BMP280;63475;45.140;-75.616;2023-02-24T05:02:20;100533.66;;;-9.49
74915;BMP280;63475;45.140;-75.616;2023-02-24T05:03:25;100530.34;;;-9.40
74915;BMP280;63475;45.140;-75.616;2023-02-24T05:04:29;100508.56;;;-9.47
74915;BMP280;63475;45.140;-75.616;2023-02-24T05:05:31;100538.78;;;-9.24
74915;BMP280;63475;45.140;-75.616;2023-02-24T05:06:33;100540.81;;;-9.21
74915;BMP280;63475;45.140;-75.616;2023-02-24T05:07:35;100521.13;;;-9.36
74915;BMP280;63475;45.140;-75.616;2023-02-24T05:08:36;100546.47;;;-9.19
74915;BMP280;63475;45.140;-75.616;2023-02-24T05:09:38;100560.31;;;-9.15
74915;BMP280;63475;45.140;-75.616;2023-02-24T05:10:43;100553.91;;;-9.12
74915;BMP280;63475;45.140;-75.616;2023-02-24T05:11:48;100559.81;;;-9.17
74915;BMP280;63475;45.140;-75.616;2023-02-24T05:12:49;100562.88;;;-9.20
74915;BMP280;63475;45.140;-75.616;2023-02-24T05:13:50;100539.31;;;-9.32
74915;BMP280;63475;45.140;-75.616;2023-02-24T05:14:51;100540.09;;;-9.37
74915;BMP280;63475;45.140;-75.616;2023-02-24T05:16:02;100564.94;;;-9.22
74915;BMP280;63475;45.140;-75.616;2023-02-24T05:17:22;100547.03;;;-9.37
74915;BMP280;63475;45.140;-75.616;2023-02-24T05:18:24;100573.69;;;-9.28
74915;BMP280;63475;45.140;-75.616;2023-02-24T05:19:26;100565.22;;;-9.29
74915;BMP280;63475;45.140;-75.616;2023-02-24T05:20:48;100581.63;;;-9.25
74915;BMP280;63475;45.140;-75.616;2023-02-24T05:22:07;100556.50;;;-9.43
74915;BMP280;63475;45.140;-75.616;2023-02-24T05:23:09;100577.50;;;-9.31
74915;BMP280;63475;45.140;-75.616;2023-02-24T05:24:10;100581.63;;;-9.25
74915;BMP280;63475;45.140;-75.616;2023-02-24T05:25:11;100578.53;;;-9.16
74915;BMP280;63475;45.140;-75.616;2023-02-24T05:26:16;100575.19;;;-9.17
74915;BMP280;63475;45.140;-75.616;2023-02-24T05:27:18;100569.53;;;-9.19
74915;BMP280;63475;45.140;-75.616;2023-02-24T05:28:21;100568.25;;;-9.21
74915;BMP280;63475;45.140;-75.616;2023-02-24T05:29:27;100575.97;;;-9.16
74915;BMP280;63475;45.140;-75.616;2023-02-24T05:30:28;100581.38;;;-9.13
74915;BMP280;63475;45.140;-75.616;2023-02-24T05:31:29;100578.28;;;-9.15
74915;BMP280;63475;45.140;-75.616;2023-02-24T05:32:30;100573.66;;;-9.18
74915;BMP280;63475;45.140;-75.616;2023-02-24T05:33:37;100557.25;;;-9.27
74915;BMP280;63475;45.140;-75.616;2023-02-24T05:34:38;100564.69;;;-9.26
74915;BMP280;63475;45.140;-75.616;2023-02-24T05:35:39;100587.00;;;-9.11
74915;BMP280;63475;45.140;-75.616;2023-02-24T05:36:40;100578.81;;;-9.13
74915;BMP280;63475;45.140;-75.616;2023-02-24T05:37:42;100577.78;;;-9.12
74915;BMP280;63475;45.140;-75.616;2023-02-24T05:38:50;100586.25;;;-9.06
74915;BMP280;63475;45.140;-75.616;2023-02-24T05:39:54;100588.53;;;-9.05
74915;BMP280;63475;45.140;-75.616;2023-02-24T05:41:06;100570.56;;;-9.15
74915;BMP280;63475;45.140;-75.616;2023-02-24T05:42:08;100590.09;;;-9.04
74915;BMP280;63475;45.140;-75.616;2023-02-24T05:43:09;100532.38;;;-9.52
74915;BMP280;63475;45.140;-75.616;2023-02-24T05:44:13;100607.00;;;-9.03
74915;BMP280;63475;45.140;-75.616;2023-02-24T05:45:15;100588.28;;;-9.18
74915;BMP280;63475;45.140;-75.616;2023-02-24T05:46:16;100613.41;;;-9.00
74915;BMP280;63475;45.140;-75.616;2023-02-24T05:47:17;100615.97;;;-9.00
74915;BMP280;63475;45.140;-75.616;2023-02-24T05:48:19;100620.34;;;-9.01
74915;BMP280;63475;45.140;-75.616;2023-02-24T05:49:21;100624.47;;;-8.94
74915;BMP280;63475;45.140;-75.616;2023-02-24T05:50:22;100615.97;;;-9.00
74915;BMP280;63475;45.140;-75.616;2023-02-24T05:51:28;100618.78;;;-8.97
74915;BMP280;63475;45.140;-75.616;2023-02-24T05:52:35;100628.81;;;-9.00
74915;BMP280;63475;45.140;-75.616;2023-02-24T05:53:38;100621.34;;;-8.86
74915;BMP280;63475;45.140;-75.616;2023-02-24T05:54:43;100621.09;;;-8.90
74915;BMP280;63475;45.140;-75.616;2023-02-24T05:55:44;100622.13;;;-8.96
74915;BMP280;63475;45.140;-75.616;2023-02-24T05:56:45;100598.56;;;-9.13
74915;BMP280;63475;45.140;-75.616;2023-02-24T05:57:46;100630.34;;;-8.94
74915;BMP280;63475;45.140;-75.616;2023-02-24T05:58:50;100628.53;;;-8.88
74915;BMP280;63475;45.140;-75.616;2023-02-24T06:00:02;100650.59;;;-8.98
74915;BMP280;63475;45.140;-75.616;2023-02-24T06:01:16;100649.09;;;-8.93
74915;BMP280;63475;45.140;-75.616;2023-02-24T06:02:21;100626.75;;;-9.08
74915;BMP280;63475;45.140;-75.616;2023-02-24T06:03:26;100612.91;;;-9.17
74915;BMP280;63475;45.140;-75.616;2023-02-24T06:04:30;100618.53;;;-9.15
74915;BMP280;63475;45.140;-75.616;2023-02-24T06:05:40;100646.78;;;-9.00
74915;BMP280;63475;45.140;-75.616;2023-02-24T06:06:42;100646.00;;;-9.01
74915;BMP280;63475;45.140;-75.616;2023-02-24T06:07:43;100620.31;;;-9.21
74915;BMP280;63475;45.140;-75.616;2023-02-24T06:08:46;100650.59;;;-8.98
74915;BMP280;63475;45.140;-75.616;2023-02-24T06:09:52;100623.41;;;-9.19
74915;BMP280;63475;45.140;-75.616;2023-02-24T06:10:53;100614.44;;;-9.21
74915;BMP280;63475;45.140;-75.616;2023-02-24T06:11:54;100621.63;;;-9.24
74915;BMP280;63475;45.140;-75.616;2023-02-24T06:12:55;100658.31;;;-9.03
74915;BMP280;63475;45.140;-75.616;2023-02-24T06:13:59;100616.50;;;-9.18
74915;BMP280;63475;45.140;-75.616;2023-02-24T06:15:01;100667.56;;;-8.91
74915;BMP280;63475;45.140;-75.616;2023-02-24T06:16:22;100649.31;;;-9.15
74915;BMP280;63475;45.140;-75.616;2023-02-24T06:17:26;100676.78;;;-9.01
74915;BMP280;63475;45.140;-75.616;2023-02-24T06:18:27;100670.38;;;-8.98
74915;BMP280;63475;45.140;-75.616;2023-02-24T06:19:29;100660.63;;;-9.11
74915;BMP280;63475;45.140;-75.616;2023-02-24T06:20:33;100679.09;;;-9.04
74915;BMP280;63475;45.140;-75.616;2023-02-24T06:21:35;100679.09;;;-8.99
74915;BMP280;63475;45.140;-75.616;2023-02-24T06:22:36;100678.06;;;-8.93
74915;BMP280;63475;45.140;-75.616;2023-02-24T06:23:41;100676.53;;;-8.99
74915;BMP280;63475;45.140;-75.616;2023-02-24T06:24:42;100674.22;;;-9.01
74915;BMP280;63475;45.140;-75.616;2023-02-24T06:25:48;100686.03;;;-8.94
74915;BMP280;63475;45.140;-75.616;2023-02-24T06:26:49;100689.09;;;-8.92
74915;BMP280;63475;45.140;-75.616;2023-02-24T06:27:53;100657.53;;;-9.18
74915;BMP280;63475;45.140;-75.616;2023-02-24T06:28:58;100671.91;;;-9.17
74915;BMP280;63475;45.140;-75.616;2023-02-24T06:29:58;100686.25;;;-8.96
74915;BMP280;63475;45.140;-75.616;2023-02-24T06:31:03;100700.91;;;-8.97
74915;BMP280;63475;45.140;-75.616;2023-02-24T06:32:09;100705.78;;;-8.95
74915;BMP280;63475;45.140;-75.616;2023-02-24T06:33:10;100703.47;;;-8.97
74915;BMP280;63475;45.140;-75.616;2023-02-24T06:34:11;100706.81;;;-8.91